Time;durP1;ratioP1;P1;durP2;ratioP2;P2;SDS_P1;SDS_P2;PMS_P1;PMS_P2;Temp;Humidity;BMP_temperature;BMP_pressure;BME280_temperature;BME280_humidity;BME280_pressure;Samples;Min_cycle;Max_cycle;Signal;HPM_P1;HPM_P2
2022/11/25 00:00:03;;;;;;;20.42;3.70;;;;;;;;;;5014236;27;93444;-64
2022/11/25 00:02:30;;;;;;;21.42;3.78;;;;;;;;;;5013176;28;92467;-64
2022/11/25 00:04:56;;;;;;;20.25;3.60;;;;;;;;;;5015246;28;93181;-64
2022/11/25 00:07:22;;;;;;;23.10;3.72;;;;;;;;;;5018263;28;93539;-65
2022/11/25 00:09:49;;;;;;;25.60;4.68;;;;;;;;;;5011967;28;96700;-64
2022/11/25 00:12:15;;;;;;;21.80;4.10;;;;;;;;;;5016341;28;92656;-64
2022/11/25 00:14:41;;;;;;;21.52;4.65;;;;;;;;;;5015144;28;91909;-63
2022/11/25 00:17:08;;;;;;;17.35;3.53;;;;;;;;;;5014753;28;92626;-63
2022/11/25 00:19:34;;;;;;;25.50;5.05;;;;;;;;;;5014258;28;93609;-64
2022/11/25 00:22:00;;;;;;;25.73;4.25;;;;;;;;;;5027559;28;94793;-64
2022/11/25 00:24:26;;;;;;;15.73;3.42;;;;;;;;;;5014717;27;95693;-63
2022/11/25 00:26:53;;;;;;;24.05;4.18;;;;;;;;;;5009604;28;93509;-64
2022/11/25 00:29:19;;;;;;;24.08;3.83;;;;;;;;;;5012506;28;94098;-64
2022/11/25 00:31:45;;;;;;;20.55;3.78;;;;;;;;;;5014379;28;93421;-64
2022/11/25 00:34:13;;;;;;;23.77;4.90;;;;;;;;;;5015429;28;92380;-64
2022/11/25 00:36:39;;;;;;;23.10;3.92;;;;;;;;;;5010989;28;93286;-64
2022/11/25 00:39:08;;;;;;;27.27;5.05;;;;;;;;;;5021349;28;92674;-64
2022/11/25 00:44:35;;;;;;;21.35;4.05;;;;;;;;;;5020182;27;93313;-64
2022/11/25 00:47:04;;;;;;;30.48;5.18;;;;;;;;;;5010163;28;96138;-64
2022/11/25 00:49:31;;;;;;;17.88;3.25;;;;;;;;;;5011827;28;92507;-64
2022/11/25 00:51:57;;;;;;;24.50;3.85;;;;;;;;;;5016886;28;94122;-64
2022/11/25 00:54:24;;;;;;;20.17;4.07;;;;;;;;;;5013886;28;92506;-65
2022/11/25 00:56:50;;;;;;;20.08;4.72;;;;;;;;;;5014716;28;93624;-64
2022/11/25 00:59:17;;;;;;;24.10;4.07;;;;;;;;;;5014197;28;93786;-65
2022/11/25 01:01:43;;;;;;;28.10;4.28;;;;;;;;;;5012816;28;92942;-64
2022/11/25 01:04:10;;;;;;;19.80;4.00;;;;;;;;;;5015197;28;93670;-65
2022/11/25 01:06:36;;;;;;;19.33;3.97;;;;;;;;;;5012851;28;93481;-64
2022/11/25 01:09:03;;;;;;;22.20;4.28;;;;;;;;;;5014608;28;93670;-64
2022/11/25 01:11:29;;;;;;;25.25;4.03;;;;;;;;;;5015110;28;95078;-65
2022/11/25 01:13:57;;;;;;;28.15;3.72;;;;;;;;;;5013943;28;92445;-64
2022/11/25 01:16:26;;;;;;;;;;;;;;;;;;5015666;28;93170;-64
2022/11/25 01:18:53;;;;;;;22.05;4.18;;;;;;;;;;5015500;28;122488;-64
2022/11/25 01:21:21;;;;;;;28.13;3.97;;;;;;;;;;5014226;28;94015;-63
2022/11/25 01:23:48;;;;;;;23.20;3.88;;;;;;;;;;5014899;28;94306;-64
2022/11/25 01:26:18;;;;;;;19.45;3.22;;;;;;;;;;5013848;28;94861;-64
2022/11/25 01:28:44;;;;;;;;;;;;;;;;;;5014309;28;91863;-64
2022/11/25 01:31:13;;;;;;;22.58;4.10;;;;;;;;;;5014879;28;123338;-64
2022/11/25 01:33:39;;;;;;;19.77;3.20;;;;;;;;;;5017046;28;93561;-64
2022/11/25 01:36:07;;;;;;;30.10;3.83;;;;;;;;;;5009995;28;94861;-64
2022/11/25 01:38:34;;;;;;;16.88;3.72;;;;;;;;;;5012896;28;93627;-64
2022/11/25 01:41:00;;;;;;;18.55;4.22;;;;;;;;;;5013082;28;94472;-64
2022/11/25 01:43:27;;;;;;;32.88;4.85;;;;;;;;;;5012900;28;94185;-64
2022/11/25 01:46:01;;;;;;;15.23;3.28;;;;;;;;;;5013099;28;93675;-64
2022/11/25 01:48:32;;;;;;;21.73;4.05;;;;;;;;;;5012530;28;92492;-65
2022/11/25 01:50:58;;;;;;;20.52;4.85;;;;;;;;;;5015662;28;95301;-64
2022/11/25 01:53:25;;;;;;;23.30;3.70;;;;;;;;;;5024911;27;92935;-64
2022/11/25 01:55:54;;;;;;;22.30;3.55;;;;;;;;;;5015468;28;92443;-64
2022/11/25 01:58:24;;;;;;;22.10;4.40;;;;;;;;;;5018416;28;93890;-64
2022/11/25 02:00:51;;;;;;;28.70;4.33;;;;;;;;;;5015672;27;95056;-64
2022/11/25 02:03:23;;;;;;;17.52;3.40;;;;;;;;;;5020470;28;95469;-64
2022/11/25 02:05:49;;;;;;;25.88;4.22;;;;;;;;;;5012031;28;93632;-64
2022/11/25 02:08:18;;;;;;;16.90;3.65;;;;;;;;;;5012634;28;92493;-65
2022/11/25 02:10:45;;;;;;;22.27;4.05;;;;;;;;;;5013931;28;94440;-64
2022/11/25 02:13:11;;;;;;;21.10;3.45;;;;;;;;;;5011644;28;93547;-64
2022/11/25 02:15:37;;;;;;;28.52;4.10;;;;;;;;;;5014189;28;92482;-64
2022/11/25 02:18:04;;;;;;;24.13;3.55;;;;;;;;;;5017653;28;94096;-64
2022/11/25 02:20:30;;;;;;;19.10;3.78;;;;;;;;;;5013453;28;92597;-64
2022/11/25 02:23:11;;;;;;;20.90;3.22;;;;;;;;;;5012532;28;93409;-64
2022/11/25 02:25:38;;;;;;;23.63;3.90;;;;;;;;;;5011609;28;96215;-65
2022/11/25 02:28:25;;;;;;;22.45;3.90;;;;;;;;;;5008943;28;92573;-64
2022/11/25 02:30:51;;;;;;;23.45;4.65;;;;;;;;;;5012204;28;94398;-64
2022/11/25 02:33:18;;;;;;;23.00;4.25;;;;;;;;;;5013887;28;93502;-64
2022/11/25 02:35:51;;;;;;;27.40;4.07;;;;;;;;;;5013831;28;92410;-64
2022/11/25 02:38:22;;;;;;;26.65;5.10;;;;;;;;;;5012200;28;93965;-65
2022/11/25 02:40:51;;;;;;;22.58;5.05;;;;;;;;;;5015245;28;93818;-64
2022/11/25 02:43:18;;;;;;;18.08;4.13;;;;;;;;;;5012971;28;94583;-64
2022/11/25 02:45:50;;;;;;;24.20;3.67;;;;;;;;;;5014118;28;93701;-64
2022/11/25 02:48:17;;;;;;;17.70;3.60;;;;;;;;;;5012841;28;92735;-64
2022/11/25 02:50:43;;;;;;;16.55;3.65;;;;;;;;;;5011410;28;94748;-64
2022/11/25 02:53:10;;;;;;;20.67;3.60;;;;;;;;;;5012138;28;94399;-64
2022/11/25 02:55:36;;;;;;;25.48;4.22;;;;;;;;;;5012950;28;92434;-64
2022/11/25 02:58:02;;;;;;;24.33;3.97;;;;;;;;;;5018894;27;93326;-64
2022/11/25 03:00:29;;;;;;;22.63;3.67;;;;;;;;;;5013639;28;93693;-64
2022/11/25 03:02:55;;;;;;;15.80;3.47;;;;;;;;;;5016330;28;92468;-64
2022/11/25 03:05:21;;;;;;;22.05;3.50;;;;;;;;;;5011605;28;93738;-64
2022/11/25 03:07:48;;;;;;;20.75;4.38;;;;;;;;;;5012392;28;91692;-62
2022/11/25 03:10:14;;;;;;;19.23;3.42;;;;;;;;;;5009938;28;92630;-64
2022/11/25 03:12:41;;;;;;;21.85;3.58;;;;;;;;;;5014162;28;95977;-63
2022/11/25 03:15:07;;;;;;;24.95;3.50;;;;;;;;;;5014868;28;95115;-63
2022/11/25 03:17:34;;;;;;;15.40;3.50;;;;;;;;;;5015857;28;95652;-64
2022/11/25 03:20:00;;;;;;;17.73;3.80;;;;;;;;;;5016440;28;93694;-64
2022/11/25 03:22:26;;;;;;;20.27;3.85;;;;;;;;;;5018569;28;92473;-63
2022/11/25 03:24:53;;;;;;;18.33;3.55;;;;;;;;;;5015816;28;93861;-64
2022/11/25 03:27:19;;;;;;;26.50;4.65;;;;;;;;;;5014218;28;93749;-64
2022/11/25 03:29:45;;;;;;;26.98;4.65;;;;;;;;;;5015580;28;93187;-64
2022/11/25 03:32:11;;;;;;;20.27;3.35;;;;;;;;;;5015938;28;93915;-63
2022/11/25 03:34:38;;;;;;;21.00;3.88;;;;;;;;;;5016779;28;92449;-64
2022/11/25 03:37:04;;;;;;;19.42;4.07;;;;;;;;;;5016347;28;94160;-64
2022/11/25 03:39:30;;;;;;;16.58;3.88;;;;;;;;;;5007058;28;96032;-63
2022/11/25 03:41:57;;;;;;;20.73;3.60;;;;;;;;;;5015318;28;92582;-64
2022/11/25 03:44:23;;;;;;;19.25;3.53;;;;;;;;;;5019180;28;93193;-64
2022/11/25 03:46:49;;;;;;;13.63;3.28;;;;;;;;;;5016082;28;92775;-65
2022/11/25 03:49:16;;;;;;;18.88;4.35;;;;;;;;;;5015052;28;93257;-64
2022/11/25 03:51:42;;;;;;;18.35;3.47;;;;;;;;;;5015065;28;93426;-64
2022/11/25 03:54:09;;;;;;;20.77;3.80;;;;;;;;;;5015353;28;92541;-64
2022/11/25 03:56:35;;;;;;;22.30;4.13;;;;;;;;;;5015666;28;93164;-64
2022/11/25 03:59:01;;;;;;;17.02;3.53;;;;;;;;;;5013813;28;93700;-65
2022/11/25 04:01:28;;;;;;;12.85;3.13;;;;;;;;;;5015583;28;92453;-64
2022/11/25 04:03:54;;;;;;;18.42;3.47;;;;;;;;;;5011238;28;95666;-64
2022/11/25 04:06:22;;;;;;;23.10;3.92;;;;;;;;;;5017337;28;93772;-65
2022/11/25 04:08:49;;;;;;;10.07;2.90;;;;;;;;;;5016008;28;96055;-65
2022/11/25 04:11:15;;;;;;;9.02;3.08;;;;;;;;;;5018679;28;94459;-64
2022/11/25 04:13:41;;;;;;;18.13;3.28;;;;;;;;;;5015778;28;92590;-64
2022/11/25 04:16:18;;;;;;;20.70;3.63;;;;;;;;;;5024076;28;92990;-65
2022/11/25 04:18:44;;;;;;;9.40;2.47;;;;;;;;;;5023121;28;94779;-64
2022/11/25 04:21:11;;;;;;;12.25;2.88;;;;;;;;;;5018172;28;91723;-64
2022/11/25 04:23:37;;;;;;;16.58;3.03;;;;;;;;;;5012074;28;94132;-64
2022/11/25 04:26:03;;;;;;;16.38;2.20;;;;;;;;;;5018767;28;92618;-64
2022/11/25 04:28:30;;;;;;;5.88;1.67;;;;;;;;;;5012269;28;94927;-64
2022/11/25 04:30:56;;;;;;;6.95;2.28;;;;;;;;;;5018493;28;92433;-65
2022/11/25 04:33:22;;;;;;;7.85;1.63;;;;;;;;;;5026194;28;92655;-64
2022/11/25 04:35:49;;;;;;;12.45;2.83;;;;;;;;;;5027423;28;93648;-64
2022/11/25 04:38:15;;;;;;;9.45;2.15;;;;;;;;;;5026234;27;92557;-65
2022/11/25 04:40:41;;;;;;;7.40;1.73;;;;;;;;;;5017792;27;92400;-64
2022/11/25 04:43:09;;;;;;;10.40;2.20;;;;;;;;;;5020529;28;92433;-64
2022/11/25 04:45:36;;;;;;;7.60;1.83;;;;;;;;;;5014492;28;93830;-65
2022/11/25 04:48:22;;;;;;;5.63;1.50;;;;;;;;;;5024546;28;92466;-65
2022/11/25 04:50:48;;;;;;;7.05;1.40;;;;;;;;;;5017046;27;92963;-64
2022/11/25 04:53:14;;;;;;;9.63;1.98;;;;;;;;;;5012252;28;94925;-65
2022/11/25 04:55:41;;;;;;;4.55;1.33;;;;;;;;;;5012702;28;95559;-64
2022/11/25 04:58:08;;;;;;;6.65;1.23;;;;;;;;;;5014446;28;93413;-65
2022/11/25 05:00:34;;;;;;;9.77;1.38;;;;;;;;;;5014168;28;92875;-64
2022/11/25 05:03:01;;;;;;;9.52;1.88;;;;;;;;;;5014605;28;93103;-65
2022/11/25 05:05:27;;;;;;;5.03;1.88;;;;;;;;;;5015146;28;93424;-65
2022/11/25 05:07:53;;;;;;;9.88;1.83;;;;;;;;;;5013476;28;92457;-64
2022/11/25 05:10:20;;;;;;;9.40;1.35;;;;;;;;;;5017203;28;96897;-65
2022/11/25 05:12:46;;;;;;;7.15;1.50;;;;;;;;;;5014535;28;92484;-64
2022/11/25 05:15:12;;;;;;;10.75;1.50;;;;;;;;;;5015217;28;94054;-64
2022/11/25 05:17:39;;;;;;;8.77;1.40;;;;;;;;;;5012355;28;96116;-65
2022/11/25 05:20:06;;;;;;;9.32;1.17;;;;;;;;;;5015350;28;92500;-64
2022/11/25 05:22:33;;;;;;;7.40;1.27;;;;;;;;;;5014304;28;93350;-63
2022/11/25 05:24:59;;;;;;;3.53;1.10;;;;;;;;;;5014549;28;96123;-64
2022/11/25 05:27:26;;;;;;;10.55;1.80;;;;;;;;;;4997264;28;92481;-64
2022/11/25 05:29:52;;;;;;;7.32;1.33;;;;;;;;;;5028779;28;93100;-64
2022/11/25 05:32:21;;;;;;;6.90;1.38;;;;;;;;;;5015677;27;93586;-64
2022/11/25 05:34:47;;;;;;;8.45;1.60;;;;;;;;;;5014707;28;93360;-64
2022/11/25 05:37:14;;;;;;;5.97;1.77;;;;;;;;;;5014024;28;93828;-64
2022/11/25 05:39:46;;;;;;;6.78;1.48;;;;;;;;;;5013182;28;92476;-65
2022/11/25 05:42:12;;;;;;;4.32;1.10;;;;;;;;;;5012123;28;95939;-64
2022/11/25 05:44:39;;;;;;;4.70;1.25;;;;;;;;;;5029462;27;93552;-64
2022/11/25 05:47:05;;;;;;;7.00;1.67;;;;;;;;;;5014561;28;92557;-64
2022/11/25 05:49:31;;;;;;;5.63;1.45;;;;;;;;;;5012918;28;93172;-64
2022/11/25 05:51:59;;;;;;;6.93;1.90;;;;;;;;;;5013359;28;93568;-64
2022/11/25 05:54:26;;;;;;;7.80;1.60;;;;;;;;;;5017716;28;92511;-64
2022/11/25 05:56:52;;;;;;;7.70;1.58;;;;;;;;;;5013562;28;93401;-63
2022/11/25 05:59:18;;;;;;;8.70;1.75;;;;;;;;;;5014667;28;91944;-64
2022/11/25 06:01:45;;;;;;;9.55;1.90;;;;;;;;;;5013503;28;92463;-63
2022/11/25 06:04:11;;;;;;;5.65;1.63;;;;;;;;;;5010744;28;93772;-64
2022/11/25 06:06:37;;;;;;;6.35;1.80;;;;;;;;;;5012001;28;95830;-64
2022/11/25 06:09:04;;;;;;;5.30;1.70;;;;;;;;;;5013252;28;98341;-64
2022/11/25 06:11:30;;;;;;;12.50;2.40;;;;;;;;;;5012384;28;93441;-64
2022/11/25 06:13:59;;;;;;;5.78;1.77;;;;;;;;;;5013371;28;92503;-64
2022/11/25 06:16:25;;;;;;;4.90;1.90;;;;;;;;;;5017990;28;94100;-64
2022/11/25 06:18:51;;;;;;;9.80;2.58;;;;;;;;;;5013613;28;92470;-64
2022/11/25 06:21:18;;;;;;;5.82;1.83;;;;;;;;;;5013235;28;93148;-64
2022/11/25 06:23:44;;;;;;;10.07;2.72;;;;;;;;;;5014004;28;95941;-64
2022/11/25 06:26:12;;;;;;;7.50;2.58;;;;;;;;;;5013724;28;92417;-64
2022/11/25 06:28:39;;;;;;;8.27;2.10;;;;;;;;;;5010073;28;93049;-64
2022/11/25 06:31:24;;;;;;;2.97;1.60;;;;;;;;;;5002054;28;95747;-64
2022/11/25 06:33:51;;;;;;;10.57;2.38;;;;;;;;;;5011855;28;92594;-64
2022/11/25 06:36:18;;;;;;;11.70;2.03;;;;;;;;;;5012791;28;93463;-64
2022/11/25 06:38:49;;;;;;;7.22;2.28;;;;;;;;;;5016931;28;95761;-64
2022/11/25 06:41:15;;;;;;;4.25;1.88;;;;;;;;;;5012630;28;93647;-64
2022/11/25 06:43:42;;;;;;;7.05;2.53;;;;;;;;;;5012335;28;93363;-64
2022/11/25 06:46:09;;;;;;;9.77;2.53;;;;;;;;;;5013546;28;93798;-65
2022/11/25 06:48:36;;;;;;;9.38;2.42;;;;;;;;;;5016354;28;93136;-64
2022/11/25 06:51:04;;;;;;;9.05;2.50;;;;;;;;;;5016879;28;93646;-65
2022/11/25 06:53:30;;;;;;;6.75;2.00;;;;;;;;;;5016473;28;92567;-64
2022/11/25 06:56:07;;;;;;;8.32;2.08;;;;;;;;;;5014626;28;94799;-64
2022/11/25 06:58:34;;;;;;;8.15;2.40;;;;;;;;;;5016805;28;93731;-64
2022/11/25 07:01:03;;;;;;;8.55;2.35;;;;;;;;;;5019029;28;92557;-64
2022/11/25 07:03:30;;;;;;;11.02;2.53;;;;;;;;;;5023334;27;93568;-64
2022/11/25 07:05:57;;;;;;;10.75;2.70;;;;;;;;;;5022760;27;93896;-64
2022/11/25 07:08:24;;;;;;;10.50;2.63;;;;;;;;;;5022551;28;93239;-65
2022/11/25 07:11:04;;;;;;;7.40;2.70;;;;;;;;;;5016335;28;93713;-64
2022/11/25 07:13:30;;;;;;;9.43;2.50;;;;;;;;;;5014369;28;91860;-61
2022/11/25 07:16:01;;;;;;;5.57;2.58;;;;;;;;;;5021654;28;92838;-62
2022/11/25 07:18:28;;;;;;;11.52;2.95;;;;;;;;;;5022576;28;93430;-62
2022/11/25 07:20:54;;;;;;;8.75;2.40;;;;;;;;;;5020969;27;94805;-63
2022/11/25 07:23:20;;;;;;;8.82;2.88;;;;;;;;;;5021135;28;93624;-62
2022/11/25 07:25:47;;;;;;;8.07;2.70;;;;;;;;;;5013453;28;92550;-63
2022/11/25 07:28:14;;;;;;;9.25;2.75;;;;;;;;;;5026769;28;93536;-62
2022/11/25 07:30:40;;;;;;;8.70;2.38;;;;;;;;;;5015614;28;93660;-63
2022/11/25 07:33:26;;;;;;;9.73;2.65;;;;;;;;;;5016279;27;92494;-62
2022/11/25 07:35:53;;;;;;;13.85;2.97;;;;;;;;;;5023786;27;93240;-62
2022/11/25 07:38:19;;;;;;;10.77;3.50;;;;;;;;;;5014901;28;92711;-63
2022/11/25 07:40:45;;;;;;;12.18;3.25;;;;;;;;;;5016149;28;92395;-62
2022/11/25 07:43:11;;;;;;;12.35;3.17;;;;;;;;;;5018501;28;93184;-62
2022/11/25 07:45:38;;;;;;;8.13;3.08;;;;;;;;;;5013474;28;94994;-63
2022/11/25 07:48:05;;;;;;;12.02;2.97;;;;;;;;;;5014815;28;95599;-62
2022/11/25 07:50:31;;;;;;;8.27;3.22;;;;;;;;;;5016259;28;94038;-62
2022/11/25 07:52:58;;;;;;;12.13;3.05;;;;;;;;;;5026740;28;92683;-63
2022/11/25 07:55:24;;;;;;;7.30;2.70;;;;;;;;;;5016812;28;93158;-63
2022/11/25 07:57:50;;;;;;;13.05;3.15;;;;;;;;;;5010429;27;94446;-62
2022/11/25 08:00:16;;;;;;;6.88;2.92;;;;;;;;;;5014889;28;92553;-62
2022/11/25 08:02:43;;;;;;;13.45;3.13;;;;;;;;;;5015726;28;93336;-62
2022/11/25 08:05:10;;;;;;;14.73;3.55;;;;;;;;;;5019712;28;94624;-62
2022/11/25 08:07:36;;;;;;;5.45;2.80;;;;;;;;;;5014414;28;93666;-62
2022/11/25 08:10:03;;;;;;;9.85;3.58;;;;;;;;;;5013058;27;95886;-62
2022/11/25 08:12:30;;;;;;;12.25;3.22;;;;;;;;;;5015084;28;92447;-64
2022/11/25 08:14:57;;;;;;;12.45;3.55;;;;;;;;;;5013677;28;93160;-64
2022/11/25 08:17:23;;;;;;;12.32;3.45;;;;;;;;;;5012381;28;93688;-64
2022/11/25 08:19:49;;;;;;;12.25;3.47;;;;;;;;;;5014552;28;92466;-62
2022/11/25 08:22:15;;;;;;;13.02;3.38;;;;;;;;;;5014089;28;93491;-63
2022/11/25 08:24:42;;;;;;;6.70;2.90;;;;;;;;;;5011225;28;93801;-67
2022/11/25 08:27:08;;;;;;;8.88;3.10;;;;;;;;;;5018517;28;91703;-65
2022/11/25 08:29:34;;;;;;;11.80;3.22;;;;;;;;;;5014957;28;93382;-61
2022/11/25 08:32:01;;;;;;;8.85;3.00;;;;;;;;;;5016154;28;92424;-62
2022/11/25 08:34:32;;;;;;;11.25;3.60;;;;;;;;;;5013339;28;94856;-62
2022/11/25 08:36:59;;;;;;;13.10;3.20;;;;;;;;;;5025390;28;93307;-62
2022/11/25 08:39:25;;;;;;;11.43;3.13;;;;;;;;;;5035917;27;92846;-62
2022/11/25 08:42:11;;;;;;;10.05;2.80;;;;;;;;;;5035148;27;93281;-62
2022/11/25 08:44:38;;;;;;;12.60;3.17;;;;;;;;;;5016128;28;93400;-62
2022/11/25 08:47:04;;;;;;;12.02;3.47;;;;;;;;;;5026418;28;92446;-62
2022/11/25 08:49:30;;;;;;;8.90;3.28;;;;;;;;;;5016668;28;93161;-62
2022/11/25 08:52:05;;;;;;;13.30;2.95;;;;;;;;;;5035586;27;91693;-62
2022/11/25 08:54:31;;;;;;;12.82;2.95;;;;;;;;;;5035626;27;92468;-62
2022/11/25 08:56:59;;;;;;;7.43;3.08;;;;;;;;;;5035534;27;93286;-62
2022/11/25 08:59:25;;;;;;;12.25;3.95;;;;;;;;;;5017624;27;94890;-62
2022/11/25 09:01:52;;;;;;;10.18;2.95;;;;;;;;;;5024513;27;96590;-62
2022/11/25 09:04:18;;;;;;;8.65;2.65;;;;;;;;;;5035514;27;92460;-62
2022/11/25 09:06:45;;;;;;;6.35;2.35;;;;;;;;;;5029569;27;92627;-62
2022/11/25 09:09:11;;;;;;;15.98;3.10;;;;;;;;;;5014774;28;93142;-62
2022/11/25 09:11:37;;;;;;;14.75;3.38;;;;;;;;;;5037044;27;93721;-62
2022/11/25 09:14:04;;;;;;;9.27;3.00;;;;;;;;;;5029497;27;94657;-62
2022/11/25 09:16:30;;;;;;;10.88;2.60;;;;;;;;;;5021983;28;93157;-62
2022/11/25 09:18:58;;;;;;;5.95;2.60;;;;;;;;;;5032902;27;92710;-63
2022/11/25 09:21:25;;;;;;;9.30;2.67;;;;;;;;;;5027752;28;93171;-62
2022/11/25 09:23:53;;;;;;;6.85;2.90;;;;;;;;;;5031875;27;96421;-62
2022/11/25 09:26:24;;;;;;;10.95;2.60;;;;;;;;;;5031331;27;92854;-62
2022/11/25 09:28:50;;;;;;;9.60;2.80;;;;;;;;;;5013551;28;93110;-62
2022/11/25 09:31:17;;;;;;;12.20;2.90;;;;;;;;;;5017933;28;93593;-62
2022/11/25 09:33:44;;;;;;;14.27;3.10;;;;;;;;;;5014168;28;92438;-62
2022/11/25 09:36:11;;;;;;;10.18;2.83;;;;;;;;;;5014957;28;93206;-62
2022/11/25 09:38:38;;;;;;;18.92;2.42;;;;;;;;;;5012615;28;92551;-63
2022/11/25 09:47:34;;;;;;;14.05;2.38;;;;;;;;;;5014351;28;92491;-61
2022/11/25 09:50:07;;;;;;;12.00;2.70;;;;;;;;;;5014246;28;94926;-63
2022/11/25 09:52:34;;;;;;;11.00;2.67;;;;;;;;;;5033821;27;93405;-61
2022/11/25 09:55:26;;;;;;;11.32;2.80;;;;;;;;;;5037106;27;92419;-64
2022/11/25 09:57:52;;;;;;;8.70;2.72;;;;;;;;;;4993107;28;93584;-62
2022/11/25 10:00:27;;;;;;;8.05;2.35;;;;;;;;;;5008075;28;92685;-62
2022/11/25 10:03:15;;;;;;;8.63;2.80;;;;;;;;;;5021869;28;93321;-62
2022/11/25 10:05:54;;;;;;;11.55;3.10;;;;;;;;;;5018687;27;93813;-63
2022/11/25 10:08:22;;;;;;;10.82;2.78;;;;;;;;;;5013999;28;91761;-62
2022/11/25 10:10:53;;;;;;;11.18;3.72;;;;;;;;;;5013718;28;92903;-64
2022/11/25 10:13:38;;;;;;;15.30;3.00;;;;;;;;;;5013633;28;94520;-62
2022/11/25 10:16:06;;;;;;;10.85;3.30;;;;;;;;;;5011075;28;94847;-62
2022/11/25 10:18:41;;;;;;;13.43;3.15;;;;;;;;;;5016847;28;95989;-62
2022/11/25 10:21:09;;;;;;;7.80;2.80;;;;;;;;;;5012790;28;92356;-63
2022/11/25 10:23:36;;;;;;;11.38;2.97;;;;;;;;;;5016922;28;93124;-63
2022/11/25 10:26:13;;;;;;;9.95;3.47;;;;;;;;;;5036579;27;94818;-62
2022/11/25 10:28:40;;;;;;;14.52;2.70;;;;;;;;;;5038210;27;92460;-62
2022/11/25 10:31:16;;;;;;;9.63;3.05;;;;;;;;;;5036193;27;95266;-63
2022/11/25 10:33:44;;;;;;;23.67;4.38;;;;;;;;;;5033066;27;93002;-63
2022/11/25 10:36:16;;;;;;;8.65;3.20;;;;;;;;;;5018470;28;92406;-63
2022/11/25 10:38:47;;;;;;;9.20;3.50;;;;;;;;;;5018100;28;94185;-62
2022/11/25 10:41:16;;;;;;;9.02;3.80;;;;;;;;;;5031861;28;96789;-63
2022/11/25 10:43:42;;;;;;;14.27;3.42;;;;;;;;;;5033191;27;96393;-63
2022/11/25 10:46:08;;;;;;;13.70;3.72;;;;;;;;;;5018070;28;94432;-63
2022/11/25 10:48:58;;;;;;;8.38;3.55;;;;;;;;;;5015358;28;92443;-63
2022/11/25 10:51:33;;;;;;;12.25;3.63;;;;;;;;;;5012694;28;93131;-62
2022/11/25 10:54:13;;;;;;;9.88;3.45;;;;;;;;;;5015565;28;93287;-62
2022/11/25 10:56:53;;;;;;;13.57;4.13;;;;;;;;;;5016979;28;92533;-62
2022/11/25 10:59:28;;;;;;;9.43;3.40;;;;;;;;;;5016021;28;93534;-63
2022/11/25 11:02:13;;;;;;;10.25;3.55;;;;;;;;;;5016810;28;93562;-63
2022/11/25 11:04:48;;;;;;;10.40;3.90;;;;;;;;;;5019015;28;92455;-62
2022/11/25 11:07:15;;;;;;;13.65;3.95;;;;;;;;;;5014375;28;97165;-62
2022/11/25 11:09:41;;;;;;;12.18;3.45;;;;;;;;;;5021838;28;92482;-63
2022/11/25 11:12:21;;;;;;;8.23;3.55;;;;;;;;;;5030210;27;93140;-63
2022/11/25 11:14:48;;;;;;;10.40;3.97;;;;;;;;;;5015022;28;93789;-63
2022/11/25 11:17:33;;;;;;;13.20;4.22;;;;;;;;;;5017781;28;92427;-63
2022/11/25 11:20:22;;;;;;;10.23;3.80;;;;;;;;;;5009569;28;94886;-62
2022/11/25 11:23:09;;;;;;;13.18;4.50;;;;;;;;;;5014896;28;93753;-63
2022/11/25 11:25:36;;;;;;;10.65;3.83;;;;;;;;;;5016329;28;91670;-63
2022/11/25 11:28:22;;;;;;;14.40;4.57;;;;;;;;;;5017862;28;92447;-63
2022/11/25 11:30:54;;;;;;;11.05;3.72;;;;;;;;;;5028715;28;92474;-63
2022/11/25 11:33:28;;;;;;;8.95;3.95;;;;;;;;;;5029810;27;94928;-63
2022/11/25 11:36:09;;;;;;;12.15;4.05;;;;;;;;;;5014694;28;96260;-63
2022/11/25 11:38:50;;;;;;;11.15;3.83;;;;;;;;;;5014794;28;92415;-63
2022/11/25 11:41:26;;;;;;;15.05;3.97;;;;;;;;;;5016634;28;93530;-63
2022/11/25 11:44:03;;;;;;;14.63;4.20;;;;;;;;;;5015969;28;93722;-63
2022/11/25 11:46:32;;;;;;;17.75;4.22;;;;;;;;;;5016986;28;92448;-63
2022/11/25 11:49:02;;;;;;;12.88;4.13;;;;;;;;;;5019012;28;93505;-61
2022/11/25 11:51:43;;;;;;;18.38;4.03;;;;;;;;;;5017704;28;91697;-61
2022/11/25 11:54:29;;;;;;;17.48;4.25;;;;;;;;;;5019161;28;92619;-61
2022/11/25 11:56:58;;;;;;;11.48;3.45;;;;;;;;;;5036673;27;93585;-61
2022/11/25 11:59:45;;;;;;;10.65;3.60;;;;;;;;;;5025305;27;95934;-62
2022/11/25 12:02:41;;;;;;;12.00;4.00;;;;;;;;;;4995451;28;96810;-61
2022/11/25 12:05:10;;;;;;;10.23;4.90;;;;;;;;;;5002190;28;93429;-61
2022/11/25 12:07:40;;;;;;;10.93;4.22;;;;;;;;;;5011477;28;92484;-63
2022/11/25 12:10:13;;;;;;;11.38;3.92;;;;;;;;;;5016484;28;93250;-62
2022/11/25 12:12:42;;;;;;;12.38;3.65;;;;;;;;;;5017880;28;92412;-63
2022/11/25 12:15:17;;;;;;;10.63;3.17;;;;;;;;;;5015789;28;92934;-62
2022/11/25 12:17:56;;;;;;;14.70;3.58;;;;;;;;;;5033913;27;93115;-63
2022/11/25 12:20:46;;;;;;;11.10;3.83;;;;;;;;;;5033996;27;92502;-63
2022/11/25 12:23:34;;;;;;;9.88;3.58;;;;;;;;;;5025736;28;96542;-63
2022/11/25 12:26:04;;;;;;;13.35;3.67;;;;;;;;;;5022576;28;96285;-63
2022/11/25 12:28:57;;;;;;;11.55;3.20;;;;;;;;;;5031478;27;93877;-63
2022/11/25 12:31:26;;;;;;;10.65;3.70;;;;;;;;;;5014713;28;93711;-62
2022/11/25 12:33:52;;;;;;;15.55;4.03;;;;;;;;;;5014578;28;93613;-63
2022/11/25 12:36:27;;;;;;;9.27;3.35;;;;;;;;;;5019239;28;92434;-63
2022/11/25 12:38:55;;;;;;;12.02;3.30;;;;;;;;;;5015859;28;93891;-63
2022/11/25 12:41:31;;;;;;;17.77;4.00;;;;;;;;;;5024213;28;92630;-63
2022/11/25 12:44:03;;;;;;;14.25;3.30;;;;;;;;;;5011518;28;93184;-63
2022/11/25 12:46:35;;;;;;;20.67;4.43;;;;;;;;;;5019867;27;94979;-63
2022/11/25 12:49:02;;;;;;;15.07;3.60;;;;;;;;;;5015944;28;92387;-63
2022/11/25 12:51:41;;;;;;;11.88;2.83;;;;;;;;;;5026573;28;96027;-62
2022/11/25 12:54:13;;;;;;;11.40;3.45;;;;;;;;;;5026202;27;93384;-62
2022/11/25 12:56:51;;;;;;;15.27;3.58;;;;;;;;;;5014429;28;92515;-62
2022/11/25 12:59:50;;;;;;;15.32;3.30;;;;;;;;;;5024472;28;93359;-62
2022/11/25 13:02:16;;;;;;;20.50;3.53;;;;;;;;;;5013179;27;92561;-62
2022/11/25 13:04:45;;;;;;;11.13;2.65;;;;;;;;;;5018145;28;92877;-62
2022/11/25 13:07:26;;;;;;;18.42;3.67;;;;;;;;;;5035151;27;93368;-63
2022/11/25 13:09:58;;;;;;;13.02;3.00;;;;;;;;;;5022587;27;91749;-63
2022/11/25 13:12:43;;;;;;;16.63;2.85;;;;;;;;;;5012317;28;94010;-62
2022/11/25 13:15:09;;;;;;;21.20;4.28;;;;;;;;;;5013442;28;93377;-63
2022/11/25 13:17:39;;;;;;;16.75;3.55;;;;;;;;;;5013724;28;94784;-63
2022/11/25 13:20:21;;;;;;;15.63;3.17;;;;;;;;;;5016554;28;95697;-63
2022/11/25 13:22:59;;;;;;;14.23;3.80;;;;;;;;;;5018289;28;94427;-62
2022/11/25 13:25:27;;;;;;;13.30;3.47;;;;;;;;;;5019448;28;93082;-62
2022/11/25 13:27:54;;;;;;;17.73;3.45;;;;;;;;;;5012077;27;94055;-63
2022/11/25 13:30:32;;;;;;;12.32;3.05;;;;;;;;;;5015271;28;92420;-62
2022/11/25 13:33:10;;;;;;;17.40;3.63;;;;;;;;;;5013450;28;93399;-61
2022/11/25 13:35:48;;;;;;;13.55;2.72;;;;;;;;;;5010270;28;95600;-61
2022/11/25 13:38:29;;;;;;;14.30;2.75;;;;;;;;;;5031768;27;93242;-62
2022/11/25 13:40:57;;;;;;;27.38;3.30;;;;;;;;;;5016386;28;93137;-62
2022/11/25 13:43:23;;;;;;;17.02;3.75;;;;;;;;;;5029069;28;96141;-62
2022/11/25 13:45:49;;;;;;;18.17;3.28;;;;;;;;;;5017514;27;92310;-62
2022/11/25 13:48:21;;;;;;;16.30;3.15;;;;;;;;;;5025196;28;94628;-62
2022/11/25 13:50:49;;;;;;;13.35;3.17;;;;;;;;;;5013732;28;92432;-62
2022/11/25 13:53:36;;;;;;;16.85;3.45;;;;;;;;;;4994770;28;95351;-62
2022/11/25 13:56:11;;;;;;;17.55;4.10;;;;;;;;;;4994492;28;93515;-62
2022/11/25 13:58:38;;;;;;;23.20;3.97;;;;;;;;;;4995035;28;92543;-61
2022/11/25 14:01:26;;;;;;;12.20;3.00;;;;;;;;;;4999880;28;94214;-61
2022/11/25 14:03:56;;;;;;;16.63;3.20;;;;;;;;;;5033352;27;93471;-63
2022/11/25 14:06:50;;;;;;;13.57;2.90;;;;;;;;;;5036701;28;92585;-62
2022/11/25 14:09:35;;;;;;;19.10;3.70;;;;;;;;;;5032690;27;95993;-62
2022/11/25 14:12:04;;;;;;;16.17;2.90;;;;;;;;;;5021133;27;92390;-62
2022/11/25 14:14:54;;;;;;;17.63;3.67;;;;;;;;;;5034513;27;93368;-62
2022/11/25 14:17:39;;;;;;;25.17;4.47;;;;;;;;;;5014108;28;96866;-62
2022/11/25 14:20:25;;;;;;;15.45;2.97;;;;;;;;;;5021404;28;92438;-62
2022/11/25 14:23:01;;;;;;;18.85;3.22;;;;;;;;;;4989725;28;94152;-62
2022/11/25 14:25:30;;;;;;;20.40;3.67;;;;;;;;;;5031451;28;93401;-62
2022/11/25 14:28:17;;;;;;;14.93;3.07;;;;;;;;;;5034889;27;91705;-61
2022/11/25 14:30:46;;;;;;;15.65;2.88;;;;;;;;;;5026692;27;92407;-62
2022/11/25 14:33:22;;;;;;;16.48;3.30;;;;;;;;;;5011912;28;92432;-62
2022/11/25 14:35:48;;;;;;;;;;;;;;;;;;5031414;28;95061;-62
2022/11/25 14:38:18;;;;;;;16.70;4.00;;;;;;;;;;5034865;28;124247;-61
2022/11/25 14:40:49;;;;;;;21.45;4.10;;;;;;;;;;5016023;27;92518;-61
2022/11/25 14:43:21;;;;;;;15.15;3.40;;;;;;;;;;5014048;28;93238;-61
2022/11/25 14:46:07;;;;;;;19.50;4.18;;;;;;;;;;5020191;28;94320;-62
2022/11/25 14:48:33;;;;;;;22.40;3.92;;;;;;;;;;5033427;28;92419;-62
2022/11/25 14:50:59;;;;;;;16.35;3.22;;;;;;;;;;5028177;27;93168;-61
2022/11/25 14:53:26;;;;;;;15.55;3.85;;;;;;;;;;5035873;27;92609;-61
2022/11/25 14:55:56;;;;;;;18.75;3.78;;;;;;;;;;5024852;27;93312;-61
2022/11/25 14:58:23;;;;;;;20.48;3.35;;;;;;;;;;5016432;27;93702;-61